createdAt,value
2022-12-19T00:04:45.386Z,-5.77
2022-12-19T00:09:47.420Z,-5.75
2022-12-19T00:14:49.552Z,-5.77
2022-12-19T00:19:53.203Z,-5.76
2022-12-19T00:24:55.536Z,-5.73
2022-12-19T00:29:57.253Z,-5.68
2022-12-19T00:35:01.661Z,-5.68
2022-12-19T00:40:04.546Z,-5.64
2022-12-19T00:45:07.441Z,-5.61
2022-12-19T00:50:11.378Z,-5.57
2022-12-19T00:55:18.523Z,-5.61
2022-12-19T01:00:21.824Z,-5.56
2022-12-19T01:05:25.269Z,-5.59
2022-12-19T01:10:27.588Z,-5.57
2022-12-19T01:15:29.588Z,-5.44
2022-12-19T01:20:33.105Z,-5.49
2022-12-19T01:25:36.885Z,-5.37
2022-12-19T01:30:41.970Z,-5.36
2022-12-19T01:35:47.624Z,-5.24
2022-12-19T01:40:51.480Z,-5.30
2022-12-19T01:45:57.163Z,-5.27
2022-12-19T01:51:02.871Z,-5.27
2022-12-19T01:56:07.635Z,-5.13
2022-12-19T02:01:09.717Z,-5.19
2022-12-19T02:06:18.951Z,-5.08
2022-12-19T02:11:21.113Z,-5.15
2022-12-19T02:16:36.794Z,-5.13
2022-12-19T02:27:42.019Z,-5.18
2022-12-19T02:32:51.779Z,-5.19
2022-12-19T02:38:03.653Z,-5.16
2022-12-19T02:43:11.473Z,-5.17
2022-12-19T02:48:19.275Z,-5.10
2022-12-19T02:53:23.619Z,-5.09
2022-12-19T02:58:49.045Z,-5.08
2022-12-19T03:04:04.275Z,-4.98
2022-12-19T03:09:16.236Z,-4.93
2022-12-19T03:14:20.933Z,-4.88
2022-12-19T03:19:24.541Z,-4.85
2022-12-19T03:24:26.785Z,-4.86
2022-12-19T03:29:33.133Z,-4.86
2022-12-19T03:34:41.607Z,-4.89
2022-12-19T03:39:49.196Z,-4.94
2022-12-19T03:44:53.934Z,-5.02
2022-12-19T03:49:57.780Z,-5.04
2022-12-19T03:55:06.575Z,-5.05
2022-12-19T04:00:11.901Z,-5.04
2022-12-19T04:05:19.574Z,-5.03
2022-12-19T04:10:25.070Z,-5.05
2022-12-19T04:15:35.044Z,-4.98
2022-12-19T04:20:43.086Z,-5.08
2022-12-19T04:25:48.323Z,-5.04
2022-12-19T04:30:50.980Z,-5.04
2022-12-19T04:35:54.589Z,-4.89
2022-12-19T04:40:56.304Z,-4.90
2022-12-19T04:45:58.455Z,-4.87
2022-12-19T04:51:02.084Z,-4.80
2022-12-19T04:56:06.013Z,-4.75
2022-12-19T05:01:08.671Z,-4.66
2022-12-19T05:06:14.387Z,-4.58
2022-12-19T05:11:19.759Z,-4.52
2022-12-19T05:16:21.947Z,-4.44
2022-12-19T05:21:25.332Z,-4.39
2022-12-19T05:26:27.537Z,-4.30
2022-12-19T05:31:29.745Z,-4.23
2022-12-19T05:36:33.304Z,-4.20
2022-12-19T05:41:35.545Z,-4.12
2022-12-19T05:46:37.427Z,-4.04
2022-12-19T05:51:40.929Z,-3.99
2022-12-19T05:56:42.850Z,-3.94
2022-12-19T06:01:45.242Z,-3.88
2022-12-19T06:06:48.390Z,-3.82
2022-12-19T06:11:50.509Z,-3.78
2022-12-19T06:16:52.633Z,-3.73
2022-12-19T06:21:56.163Z,-3.67
2022-12-19T06:26:58.350Z,-3.61
2022-12-19T06:32:00.428Z,-3.60
2022-12-19T06:37:08.135Z,-3.55
2022-12-19T06:42:10.722Z,-3.47
2022-12-19T06:47:12.808Z,-3.44
2022-12-19T06:52:16.437Z,-3.37
2022-12-19T06:57:18.786Z,-3.33
2022-12-19T07:02:27.713Z,-3.27
2022-12-19T07:07:31.486Z,-3.19
2022-12-19T07:12:33.615Z,-3.10
2022-12-19T07:17:35.700Z,-3.06
2022-12-19T07:22:39.566Z,-3.01
2022-12-19T07:27:41.740Z,-2.96
2022-12-19T07:32:43.467Z,-2.86
2022-12-19T07:37:47.155Z,-2.82
2022-12-19T07:42:48.953Z,-2.81
2022-12-19T07:47:51.241Z,-2.68
2022-12-19T07:52:54.410Z,-2.56
2022-12-19T07:57:56.568Z,-2.48
2022-12-19T08:02:59.194Z,-2.35
2022-12-19T08:08:02.606Z,-2.25
2022-12-19T08:13:04.699Z,-2.17
2022-12-19T08:18:06.462Z,-2.04
2022-12-19T08:23:09.568Z,-1.96
2022-12-19T08:28:11.382Z,-1.88
2022-12-19T08:33:13.116Z,-1.81
2022-12-19T08:38:16.785Z,-1.73
2022-12-19T08:43:18.484Z,-1.64
2022-12-19T08:48:20.372Z,-1.52
2022-12-19T08:53:26.633Z,-1.38
2022-12-19T08:58:29.871Z,-1.33
2022-12-19T09:03:44.182Z,-1.22
2022-12-19T09:09:00.023Z,-1.09
2022-12-19T09:14:02.492Z,-0.91
2022-12-19T09:19:04.485Z,-0.79
2022-12-19T09:24:10.070Z,-0.66
2022-12-19T09:29:20.302Z,-0.54
2022-12-19T09:34:24.366Z,-0.48
2022-12-19T09:39:37.191Z,-0.43
2022-12-19T09:44:56.496Z,-0.24
2022-12-19T09:49:59.576Z,-0.11
2022-12-19T09:55:06.280Z,-0.05
2022-12-19T10:00:13.472Z,0.06
2022-12-19T10:05:46.657Z,0.05
2022-12-19T10:12:38.035Z,0.22
2022-12-19T10:16:25.623Z,0.27
2022-12-19T10:22:07.597Z,0.30
2022-12-19T10:26:59.633Z,0.37
2022-12-19T10:32:08.215Z,0.42
2022-12-19T10:37:26.626Z,0.44
2022-12-19T10:42:46.322Z,0.52
2022-12-19T10:47:51.759Z,0.55
2022-12-19T10:52:55.891Z,0.60
2022-12-19T10:58:00.160Z,0.70
2022-12-19T11:03:13.222Z,0.75
2022-12-19T11:08:21.181Z,0.74
2022-12-19T11:18:22.320Z,0.73
2022-12-19T11:29:15.977Z,0.65
2022-12-19T11:30:41.547Z,0.62
2022-12-19T11:35:18.161Z,0.51
2022-12-19T11:40:31.438Z,0.50
2022-12-19T11:45:45.346Z,0.48
2022-12-19T11:50:59.858Z,0.51
2022-12-19T11:56:16.264Z,0.51
2022-12-19T12:01:36.480Z,0.43
2022-12-19T12:06:47.403Z,0.35
2022-12-19T12:15:47.234Z,0.29
2022-12-19T12:31:01.482Z,0.29
2022-12-19T12:31:51.533Z,0.28
2022-12-19T12:31:54.265Z,0.30
2022-12-19T12:35:28.680Z,0.34
2022-12-19T12:40:23.940Z,0.36
2022-12-19T12:45:35.082Z,0.40
2022-12-19T12:50:41.181Z,0.47
2022-12-19T12:55:43.077Z,0.52
2022-12-19T13:01:09.043Z,0.57
2022-12-19T13:06:26.062Z,0.61
2022-12-19T13:11:41.190Z,0.66
2022-12-19T13:16:51.873Z,0.71
2022-12-19T13:22:18.289Z,0.72
2022-12-19T13:27:36.270Z,0.72
2022-12-19T13:33:07.364Z,0.73
2022-12-19T13:39:54.016Z,0.73
2022-12-19T13:43:44.245Z,0.74
2022-12-19T13:48:49.499Z,0.75
2022-12-19T13:53:59.622Z,0.76
2022-12-19T13:59:04.238Z,0.81
2022-12-19T14:04:08.743Z,0.83
2022-12-19T14:11:26.193Z,0.86
2022-12-19T14:15:13.407Z,0.93
2022-12-19T14:22:02.404Z,0.97
2022-12-19T14:28:22.203Z,1.06
2022-12-19T14:31:14.533Z,1.07
2022-12-19T14:36:26.492Z,1.08
2022-12-19T14:41:43.549Z,1.15
2022-12-19T14:54:07.606Z,1.20
2022-12-19T14:54:35.848Z,1.29
2022-12-19T14:58:52.969Z,1.31
2022-12-19T15:03:31.822Z,1.35
2022-12-19T15:09:34.279Z,1.37
2022-12-19T15:14:57.105Z,1.48
2022-12-19T15:19:27.066Z,1.49
2022-12-19T15:24:28.908Z,1.57
2022-12-19T15:29:34.092Z,1.64
2022-12-19T15:34:41.590Z,1.70
2022-12-19T15:39:47.115Z,1.78
2022-12-19T15:44:52.958Z,1.79
2022-12-19T15:49:54.708Z,1.88
2022-12-19T15:54:56.563Z,1.98
2022-12-19T16:00:02.363Z,2.04
2022-12-19T16:05:05.204Z,2.06
2022-12-19T16:10:08.870Z,2.10
2022-12-19T16:15:19.798Z,2.13
2022-12-19T16:20:23.861Z,2.16
2022-12-19T16:25:32.475Z,2.29
2022-12-19T16:30:35.760Z,2.34
2022-12-19T16:40:59.318Z,2.44
2022-12-19T16:46:05.740Z,2.47
2022-12-19T16:51:16.715Z,2.53
2022-12-19T16:56:24.566Z,2.56
2022-12-19T17:01:28.531Z,2.61
2022-12-19T17:06:30.998Z,2.65
2022-12-19T17:11:33.489Z,2.68
2022-12-19T17:16:37.466Z,2.72
2022-12-19T17:21:39.308Z,2.78
2022-12-19T17:26:41.611Z,2.82
2022-12-19T17:31:45.174Z,2.79
2022-12-19T17:36:47.315Z,2.85
2022-12-19T17:41:49.925Z,2.89
2022-12-19T17:46:53.201Z,2.89
2022-12-19T17:51:55.871Z,2.94
2022-12-19T17:56:58.374Z,2.99
2022-12-19T18:02:01.929Z,3.03
2022-12-19T18:07:09.748Z,3.02
2022-12-19T18:12:11.510Z,2.97
2022-12-19T18:17:21.591Z,3.08
2022-12-19T18:22:23.393Z,3.13
2022-12-19T18:27:25.122Z,3.16
2022-12-19T18:32:28.460Z,3.18
2022-12-19T18:37:30.852Z,3.19
2022-12-19T18:42:32.983Z,3.20
2022-12-19T18:47:36.430Z,3.25
2022-12-19T18:52:38.730Z,3.27
2022-12-19T18:57:40.464Z,3.34
2022-12-19T19:02:49.093Z,3.35
2022-12-19T19:07:51.383Z,3.27
2022-12-19T19:12:53.970Z,3.30
2022-12-19T19:17:59.960Z,3.27
2022-12-19T19:23:02.575Z,3.28
2022-12-19T19:28:05.395Z,3.25
2022-12-19T19:33:13.524Z,3.24
2022-12-19T19:38:17.001Z,3.22
2022-12-19T19:43:21.735Z,3.26
2022-12-19T19:48:25.645Z,3.24
2022-12-19T19:53:28.396Z,3.15
2022-12-19T19:58:30.974Z,3.16
2022-12-19T20:03:36.241Z,3.21
2022-12-19T20:08:39.971Z,3.09
2022-12-19T20:13:43.360Z,3.14
2022-12-19T20:18:49.588Z,3.17
2022-12-19T20:23:53.805Z,3.10
2022-12-19T20:28:56.521Z,3.13
2022-12-19T20:34:00.115Z,3.02
2022-12-19T20:39:02.570Z,3.03
2022-12-19T20:44:05.055Z,2.90
2022-12-19T20:49:09.454Z,2.80
2022-12-19T20:54:11.628Z,2.79
2022-12-19T20:59:13.717Z,2.76
2022-12-19T21:04:17.454Z,2.71
2022-12-19T21:09:19.651Z,2.64
2022-12-19T21:14:21.425Z,2.62
2022-12-19T21:19:25.001Z,2.70
2022-12-19T21:24:26.865Z,2.61
2022-12-19T21:29:29.520Z,2.62
2022-12-19T21:34:32.797Z,2.68
2022-12-19T21:39:34.931Z,2.67
2022-12-19T21:44:37.397Z,2.72
2022-12-19T21:49:40.768Z,2.64
2022-12-19T21:54:42.953Z,2.79
2022-12-19T21:59:45.040Z,2.86
2022-12-19T22:04:49.865Z,2.99
2022-12-19T22:09:52.268Z,2.96
2022-12-19T22:14:54.101Z,2.96
2022-12-19T22:19:57.542Z,3.09
2022-12-19T22:24:59.636Z,3.19
2022-12-19T22:30:06.764Z,3.13
2022-12-19T22:35:14.355Z,3.04
2022-12-19T22:40:16.617Z,3.07
2022-12-19T22:45:18.729Z,3.11
2022-12-19T22:50:22.391Z,3.16
2022-12-19T22:55:24.497Z,3.14
2022-12-19T23:00:26.240Z,3.14
2022-12-19T23:05:29.965Z,3.11
2022-12-19T23:10:32.420Z,3.21
2022-12-19T23:15:35.168Z,3.23
2022-12-19T23:20:38.846Z,3.20
2022-12-19T23:25:42.415Z,3.21
2022-12-19T23:30:44.537Z,3.20
2022-12-19T23:35:47.983Z,3.14
2022-12-19T23:40:49.905Z,3.19
2022-12-19T23:45:52.101Z,3.27
2022-12-19T23:51:00.087Z,3.32
2022-12-19T23:56:03.794Z,3.35
